createdAt,value
2019-05-17T00:01:07.962Z,26.77
2019-05-17T00:03:41.979Z,23.80
2019-05-17T00:06:16.845Z,20.70
2019-05-17T00:08:50.804Z,22.10
2019-05-17T00:11:27.327Z,21.40
2019-05-17T00:14:01.225Z,21.77
2019-05-17T00:16:37.335Z,21.87
2019-05-17T00:19:12.281Z,24.95
2019-05-17T00:21:47.501Z,23.75
2019-05-17T00:24:21.390Z,21.80
2019-05-17T00:26:58.413Z,21.68
2019-05-17T00:29:32.327Z,19.35
2019-05-17T00:32:07.634Z,24.32
2019-05-17T00:34:41.611Z,19.07
2019-05-17T00:37:17.192Z,18.82
2019-05-17T00:39:51.308Z,20.75
2019-05-17T00:42:29.257Z,20.55
2019-05-17T00:45:06.583Z,17.62
2019-05-17T00:47:39.869Z,17.90
2019-05-17T00:50:14.103Z,16.42
2019-05-17T00:52:48.414Z,23.55
2019-05-17T00:55:22.885Z,17.98
2019-05-17T00:57:57.703Z,22.48
2019-05-17T01:00:32.179Z,21.97
2019-05-17T01:05:40.453Z,22.27
2019-05-17T01:08:14.181Z,19.90
2019-05-17T01:10:48.397Z,22.32
2019-05-17T01:13:22.252Z,20.85
2019-05-17T01:15:56.758Z,19.87
2019-05-17T01:21:06.253Z,23.02
2019-05-17T01:23:39.515Z,22.52
2019-05-17T01:26:13.537Z,19.40
2019-05-17T01:28:49.317Z,26.48
2019-05-17T01:31:23.197Z,21.10
2019-05-17T01:33:57.550Z,23.98
2019-05-17T01:36:31.661Z,22.25
2019-05-17T01:39:15.231Z,21.23
2019-05-17T01:41:41.841Z,23.00
2019-05-17T01:44:16.724Z,23.30
2019-05-17T01:46:51.217Z,19.00
2019-05-17T01:49:26.934Z,21.85
2019-05-17T01:52:01.031Z,24.57
2019-05-17T01:57:10.108Z,16.10
2019-05-17T01:59:46.678Z,19.02
2019-05-17T02:02:22.302Z,21.45
2019-05-17T02:04:56.960Z,15.48
2019-05-17T02:07:30.813Z,17.60
2019-05-17T02:10:07.426Z,23.32
2019-05-17T02:12:42.471Z,27.50
2019-05-17T02:17:50.814Z,23.77
2019-05-17T02:20:27.384Z,23.98
2019-05-17T02:23:02.542Z,15.40
2019-05-17T02:25:37.679Z,19.67
2019-05-17T02:28:12.245Z,20.27
2019-05-17T02:30:46.700Z,20.65
2019-05-17T02:33:23.587Z,20.70
2019-05-17T02:35:56.925Z,22.40
2019-05-17T02:38:33.200Z,17.05
2019-05-17T02:41:07.018Z,19.27
2019-05-17T02:43:43.407Z,15.88
2019-05-17T02:46:18.552Z,20.77
2019-05-17T02:48:53.854Z,18.17
2019-05-17T02:51:28.405Z,20.35
2019-05-17T02:54:04.086Z,17.77
2019-05-17T02:56:43.252Z,20.32
2019-05-17T02:59:15.262Z,17.10
2019-05-17T03:01:52.499Z,20.77
2019-05-17T03:04:25.097Z,23.35
2019-05-17T03:06:59.588Z,18.55
2019-05-17T03:12:07.944Z,20.12
2019-05-17T03:14:43.301Z,21.50
2019-05-17T03:19:52.703Z,22.75
2019-05-17T03:22:25.556Z,25.23
2019-05-17T03:25:02.867Z,17.67
2019-05-17T03:27:35.601Z,16.65
2019-05-17T03:30:16.929Z,21.37
2019-05-17T03:32:55.455Z,21.93
2019-05-17T03:35:27.143Z,17.55
2019-05-17T03:38:03.732Z,40.17
2019-05-17T03:41:03.469Z,38.55
2019-05-17T03:43:13.960Z,139.18
2019-05-17T03:45:48.469Z,22.32
2019-05-17T03:48:23.833Z,17.10
2019-05-17T03:53:33.103Z,17.20
2019-05-17T03:56:06.688Z,18.80
2019-05-17T04:01:13.982Z,17.90
2019-05-17T04:03:48.841Z,21.85
2019-05-17T04:06:23.906Z,17.65
2019-05-17T04:08:58.562Z,16.40
2019-05-17T04:14:07.837Z,17.07
2019-05-17T04:16:42.861Z,14.90
2019-05-17T04:19:17.291Z,21.05
2019-05-17T04:21:53.678Z,17.65
2019-05-17T04:24:26.825Z,19.37
2019-05-17T04:27:03.716Z,18.50
2019-05-17T04:29:38.505Z,19.95
2019-05-17T04:32:16.040Z,20.08
2019-05-17T04:34:52.517Z,20.27
2019-05-17T04:37:26.509Z,19.87
2019-05-17T04:40:03.564Z,21.65
2019-05-17T04:42:36.556Z,19.40
2019-05-17T04:47:44.945Z,16.87
2019-05-17T04:52:54.011Z,20.17
2019-05-17T04:55:28.055Z,21.20
2019-05-17T04:58:04.088Z,15.78
2019-05-17T05:00:42.806Z,17.85
2019-05-17T05:03:17.408Z,21.17
2019-05-17T05:05:55.145Z,17.65
2019-05-17T05:08:29.239Z,21.30
2019-05-17T05:11:04.062Z,19.37
2019-05-17T05:13:42.424Z,18.00
2019-05-17T05:16:15.355Z,19.00
2019-05-17T05:18:51.905Z,16.27
2019-05-17T05:21:27.898Z,17.70
2019-05-17T05:24:02.491Z,24.02
2019-05-17T05:26:36.493Z,17.23
2019-05-17T05:29:12.768Z,16.35
2019-05-17T05:31:46.260Z,18.62
2019-05-17T05:34:21.599Z,19.32
2019-05-17T05:36:57.129Z,16.90
2019-05-17T05:39:32.389Z,22.95
2019-05-17T05:42:11.524Z,19.52
2019-05-17T05:44:43.507Z,17.60
2019-05-17T05:47:17.289Z,19.85
2019-05-17T05:49:52.062Z,18.85
2019-05-17T05:52:25.996Z,18.07
2019-05-17T05:55:01.532Z,20.35
2019-05-17T05:57:35.555Z,23.12
2019-05-17T06:00:12.481Z,24.57
2019-05-17T06:02:45.729Z,25.12
2019-05-17T06:05:21.794Z,22.55
2019-05-17T06:07:56.349Z,20.08
2019-05-17T06:10:32.504Z,23.73
2019-05-17T06:13:13.197Z,18.85
2019-05-17T06:15:46.838Z,19.73
2019-05-17T06:18:22.721Z,21.73
2019-05-17T06:20:56.899Z,20.77
2019-05-17T06:23:32.183Z,20.12
2019-05-17T06:26:06.150Z,18.80
2019-05-17T06:28:42.329Z,19.73
2019-05-17T06:31:16.080Z,23.67
2019-05-17T06:33:52.341Z,22.48
2019-05-17T06:36:26.051Z,18.42
2019-05-17T06:39:02.228Z,19.05
2019-05-17T06:41:37.366Z,19.62
2019-05-17T06:46:45.802Z,19.10
2019-05-17T06:51:52.659Z,20.02
2019-05-17T06:57:03.074Z,22.82
2019-05-17T06:59:37.413Z,24.70
2019-05-17T07:02:12.448Z,20.88
2019-05-17T07:04:46.518Z,26.65
2019-05-17T07:07:30.613Z,23.83
2019-05-17T07:10:06.418Z,23.45
2019-05-17T07:12:54.418Z,23.65
2019-05-17T07:15:19.820Z,20.50
2019-05-17T07:17:54.729Z,26.68
2019-05-17T07:20:29.902Z,30.97
2019-05-17T07:23:03.925Z,19.48
2019-05-17T07:25:39.639Z,23.32
2019-05-17T07:28:12.987Z,24.12
2019-05-17T07:30:47.257Z,20.57
2019-05-17T07:33:21.217Z,27.17
2019-05-17T07:35:54.979Z,26.17
2019-05-17T07:38:30.241Z,23.95
2019-05-17T07:41:06.011Z,21.85
2019-05-17T07:43:40.445Z,22.58
2019-05-17T07:46:14.608Z,22.98
2019-05-17T07:48:49.785Z,20.88
2019-05-17T07:51:24.259Z,22.77
2019-05-17T07:56:31.167Z,23.98
2019-05-17T07:59:05.209Z,22.80
2019-05-17T08:01:43.085Z,24.30
2019-05-17T08:04:20.363Z,22.93
2019-05-17T08:06:54.683Z,23.85
2019-05-17T08:09:30.036Z,22.17
2019-05-17T08:12:04.251Z,28.42
2019-05-17T08:14:40.036Z,24.27
2019-05-17T08:17:15.754Z,28.65
2019-05-17T08:19:49.810Z,27.17
2019-05-17T08:22:24.859Z,24.47
2019-05-17T08:25:00.207Z,33.55
2019-05-17T08:27:35.863Z,30.30
2019-05-17T08:30:13.103Z,34.33
2019-05-17T08:32:50.257Z,35.98
2019-05-17T08:35:23.911Z,36.85
2019-05-17T08:38:00.335Z,40.03
2019-05-17T08:40:33.496Z,40.52
2019-05-17T08:43:09.735Z,46.23
2019-05-17T08:45:43.108Z,41.42
2019-05-17T08:48:17.253Z,43.23
2019-05-17T08:50:52.954Z,43.25
2019-05-17T08:53:27.114Z,42.35
2019-05-17T08:56:01.403Z,46.65
2019-05-17T08:58:36.420Z,39.92
2019-05-17T09:01:13.247Z,44.93
2019-05-17T09:03:47.592Z,42.20
2019-05-17T09:06:21.843Z,38.60
2019-05-17T09:11:30.275Z,40.05
2019-05-17T09:14:04.904Z,39.65
2019-05-17T09:16:40.072Z,42.08
2019-05-17T09:19:14.601Z,34.25
2019-05-17T09:21:50.353Z,32.50
2019-05-17T09:24:26.576Z,42.93
2019-05-17T09:27:00.724Z,33.42
2019-05-17T09:29:34.702Z,32.98
2019-05-17T09:32:09.554Z,32.03
2019-05-17T09:34:43.994Z,35.25
2019-05-17T09:37:19.869Z,38.90
2019-05-17T09:39:53.946Z,35.75
2019-05-17T09:42:29.914Z,37.50
2019-05-17T09:45:03.873Z,34.30
2019-05-17T09:47:39.820Z,33.83
2019-05-17T09:50:14.941Z,36.35
2019-05-17T09:52:49.396Z,31.65
2019-05-17T09:55:23.688Z,28.62
2019-05-17T09:58:00.270Z,26.30
2019-05-17T10:00:35.097Z,24.80
2019-05-17T10:03:10.197Z,27.13
2019-05-17T10:05:43.862Z,29.82
2019-05-17T10:08:18.679Z,39.13
2019-05-17T10:11:04.767Z,44.00
2019-05-17T10:13:29.367Z,37.90
2019-05-17T10:16:03.444Z,39.27
2019-05-17T10:18:39.943Z,37.25
2019-05-17T10:21:14.132Z,30.80
2019-05-17T10:23:49.622Z,31.97
2019-05-17T10:26:23.152Z,38.53
2019-05-17T10:28:59.274Z,35.25
2019-05-17T10:31:33.332Z,30.30
2019-05-17T10:34:09.449Z,44.15
2019-05-17T10:36:42.153Z,35.58
2019-05-17T10:39:19.266Z,33.02
2019-05-17T10:41:52.471Z,31.27
2019-05-17T10:44:38.872Z,31.55
2019-05-17T10:47:02.083Z,36.00
2019-05-17T10:49:36.064Z,30.82
2019-05-17T10:54:43.455Z,26.85
2019-05-17T10:57:19.465Z,33.08
2019-05-17T10:59:53.072Z,32.35
2019-05-17T11:02:30.397Z,28.35
2019-05-17T11:05:06.096Z,28.60
2019-05-17T11:07:43.266Z,28.10
2019-05-17T11:10:19.446Z,25.82
2019-05-17T11:12:55.353Z,29.30
2019-05-17T11:15:29.404Z,35.35
2019-05-17T11:18:03.830Z,27.95
2019-05-17T11:23:11.082Z,28.90
2019-05-17T11:25:46.451Z,31.05
2019-05-17T11:28:20.779Z,33.63
2019-05-17T11:30:54.502Z,35.52
2019-05-17T11:33:28.351Z,32.08
2019-05-17T11:36:02.724Z,31.45
2019-05-17T11:41:21.157Z,31.55
2019-05-17T11:43:53.457Z,25.82
2019-05-17T11:46:35.731Z,27.17
2019-05-17T11:49:06.322Z,28.92
2019-05-17T11:51:40.551Z,24.35
2019-05-17T11:54:15.448Z,30.88
2019-05-17T11:56:50.708Z,28.20
2019-05-17T11:59:25.612Z,28.67
2019-05-17T12:01:59.063Z,28.87
2019-05-17T12:04:33.254Z,26.20
2019-05-17T12:09:40.760Z,21.62
2019-05-17T12:12:15.038Z,24.43
2019-05-17T12:14:48.831Z,23.22
2019-05-17T12:17:23.089Z,26.12
2019-05-17T12:22:30.095Z,25.60
2019-05-17T12:25:05.358Z,26.62
2019-05-17T12:27:41.584Z,26.65
2019-05-17T12:30:15.792Z,29.15
2019-05-17T12:32:50.363Z,28.30
2019-05-17T12:35:24.661Z,28.10
2019-05-17T12:37:58.600Z,25.62
2019-05-17T12:40:32.854Z,33.38
2019-05-17T12:43:07.979Z,25.55
2019-05-17T12:45:42.125Z,25.75
2019-05-17T12:48:16.451Z,24.77
2019-05-17T12:50:50.554Z,24.10
2019-05-17T12:53:24.143Z,23.70
2019-05-17T12:55:58.958Z,24.70
2019-05-17T12:58:32.811Z,25.32
2019-05-17T13:01:08.296Z,28.07
2019-05-17T13:03:42.404Z,27.98
2019-05-17T13:06:16.922Z,26.77
2019-05-17T13:08:51.221Z,26.33
2019-05-17T13:11:25.604Z,22.80
2019-05-17T13:14:00.027Z,27.32
2019-05-17T13:16:34.782Z,25.62
2019-05-17T13:19:08.936Z,27.15
2019-05-17T13:21:44.704Z,26.25
2019-05-17T13:24:21.908Z,28.73
2019-05-17T13:26:56.962Z,33.48
2019-05-17T13:32:03.139Z,25.43
2019-05-17T13:34:39.483Z,26.73
2019-05-17T13:37:14.400Z,24.52
2019-05-17T13:39:49.426Z,29.95
2019-05-17T13:42:24.936Z,27.42
2019-05-17T13:45:00.581Z,24.60
2019-05-17T13:47:34.496Z,25.65
2019-05-17T13:50:09.622Z,29.63
2019-05-17T13:52:43.923Z,30.08
2019-05-17T13:55:18.012Z,30.10
2019-05-17T14:00:26.573Z,25.35
2019-05-17T14:03:04.163Z,30.43
2019-05-17T14:05:38.214Z,31.62
2019-05-17T14:08:13.062Z,29.90
2019-05-17T14:10:48.451Z,31.80
2019-05-17T14:13:23.726Z,29.15
2019-05-17T14:16:03.519Z,26.68
2019-05-17T14:18:37.685Z,30.88
2019-05-17T14:23:49.049Z,35.15
2019-05-17T14:26:27.867Z,29.52
2019-05-17T14:29:03.833Z,32.63
2019-05-17T14:31:38.564Z,31.52
2019-05-17T14:34:12.580Z,26.50
2019-05-17T14:36:46.410Z,28.42
2019-05-17T14:39:21.569Z,37.08
2019-05-17T14:41:56.045Z,32.35
2019-05-17T14:47:04.031Z,36.00
2019-05-17T14:49:38.673Z,35.33
2019-05-17T14:52:13.214Z,37.30
2019-05-17T14:54:47.414Z,41.68
2019-05-17T14:57:25.160Z,37.90
2019-05-17T15:00:02.309Z,34.40
2019-05-17T15:02:39.216Z,40.25
2019-05-17T15:05:15.937Z,33.33
2019-05-17T15:07:51.638Z,35.92
2019-05-17T15:10:27.558Z,36.28
2019-05-17T15:13:03.754Z,33.50
2019-05-17T15:15:38.858Z,34.92
2019-05-17T15:18:13.609Z,39.10
2019-05-17T15:20:49.603Z,31.35
2019-05-17T15:23:27.095Z,38.73
2019-05-17T15:26:01.698Z,32.33
2019-05-17T15:31:32.417Z,35.40
2019-05-17T15:34:12.845Z,33.10
2019-05-17T15:36:49.989Z,42.85
2019-05-17T15:39:25.098Z,41.45
2019-05-17T15:42:00.466Z,32.48
2019-05-17T15:44:36.393Z,35.35
2019-05-17T15:47:11.120Z,38.95
2019-05-17T15:49:46.582Z,43.45
2019-05-17T15:52:25.961Z,29.57
2019-05-17T15:54:59.338Z,39.05
2019-05-17T15:57:35.945Z,38.97
2019-05-17T16:00:19.271Z,38.28
2019-05-17T16:02:58.302Z,37.00
2019-05-17T16:05:51.943Z,36.77
2019-05-17T16:14:31.069Z,32.50
2019-05-17T16:17:12.212Z,34.78
2019-05-17T16:19:57.993Z,31.95
2019-05-17T16:22:37.024Z,30.77
2019-05-17T16:25:16.925Z,34.23
2019-05-17T16:28:06.877Z,32.05
2019-05-17T16:30:50.823Z,31.23
2019-05-17T16:33:29.116Z,38.50
2019-05-17T16:36:11.594Z,34.55
2019-05-17T16:38:53.119Z,34.38
2019-05-17T16:41:27.618Z,32.95
2019-05-17T16:44:03.662Z,35.25
2019-05-17T16:46:46.402Z,32.67
2019-05-17T16:49:36.104Z,36.73
2019-05-17T16:52:15.223Z,38.92
2019-05-17T16:55:00.879Z,33.78
2019-05-17T16:57:44.910Z,32.75
2019-05-17T17:03:46.465Z,28.67
2019-05-17T17:06:35.697Z,31.12
2019-05-17T17:09:23.917Z,30.00
2019-05-17T17:12:01.204Z,28.98
2019-05-17T17:17:33.725Z,29.95
2019-05-17T17:23:06.376Z,35.68
2019-05-17T17:25:45.859Z,36.58
2019-05-17T17:28:25.750Z,27.30
2019-05-17T17:31:02.925Z,34.55
2019-05-17T17:33:38.051Z,32.58
2019-05-17T17:36:13.866Z,36.23
2019-05-17T17:38:51.943Z,37.53
2019-05-17T17:41:26.799Z,36.38
2019-05-17T17:44:03.585Z,31.50
2019-05-17T17:46:37.994Z,34.23
2019-05-17T17:49:12.026Z,37.42
2019-05-17T17:51:46.427Z,34.23
2019-05-17T17:54:20.727Z,37.30
2019-05-17T17:56:55.906Z,43.20
2019-05-17T17:59:30.439Z,36.58
2019-05-17T18:02:04.633Z,39.95
2019-05-17T18:04:38.650Z,42.95
2019-05-17T18:07:13.141Z,43.13
2019-05-17T18:12:19.987Z,45.70
2019-05-17T18:14:53.763Z,54.08
2019-05-17T18:17:28.154Z,50.65
2019-05-17T18:20:03.587Z,45.73
2019-05-17T18:22:38.528Z,42.05
2019-05-17T18:25:13.007Z,46.45
2019-05-17T18:27:49.271Z,47.20
2019-05-17T18:30:23.760Z,44.80
2019-05-17T18:35:31.277Z,40.78
2019-05-17T18:38:05.535Z,53.25
2019-05-17T18:40:39.855Z,41.98
2019-05-17T18:43:14.734Z,42.62
2019-05-17T18:45:49.186Z,40.95
2019-05-17T18:50:55.734Z,41.55
2019-05-17T18:53:29.936Z,39.00
2019-05-17T18:56:03.985Z,45.08
2019-05-17T18:58:39.413Z,42.95
2019-05-17T19:01:13.764Z,41.53
2019-05-17T19:03:49.036Z,38.60
2019-05-17T19:06:24.752Z,47.08
2019-05-17T19:08:59.077Z,40.90
2019-05-17T19:11:33.571Z,32.85
2019-05-17T19:16:39.893Z,36.95
2019-05-17T19:19:14.299Z,37.20
2019-05-17T19:21:48.618Z,44.88
2019-05-17T19:26:55.873Z,42.27
2019-05-17T19:29:29.806Z,36.85
2019-05-17T19:32:06.659Z,39.88
2019-05-17T19:34:41.761Z,40.48
2019-05-17T19:37:15.777Z,38.13
2019-05-17T19:39:51.179Z,37.60
2019-05-17T19:42:25.073Z,43.95
2019-05-17T19:44:59.673Z,40.08
2019-05-17T19:47:33.675Z,42.62
2019-05-17T19:50:09.981Z,34.00
2019-05-17T19:52:43.662Z,38.00
2019-05-17T19:55:17.618Z,41.37
2019-05-17T19:57:52.556Z,46.90
2019-05-17T20:00:27.181Z,45.90
2019-05-17T20:03:01.482Z,48.23
2019-05-17T20:05:35.647Z,42.48
2019-05-17T20:08:09.954Z,46.98
2019-05-17T20:10:43.989Z,50.88
2019-05-17T20:13:17.889Z,50.50
2019-05-17T20:15:52.827Z,55.90
2019-05-17T20:18:26.739Z,49.77
2019-05-17T20:21:00.704Z,54.53
2019-05-17T20:23:34.710Z,46.23
2019-05-17T20:26:09.180Z,47.55
2019-05-17T20:28:42.947Z,55.17
2019-05-17T20:31:17.261Z,62.60
2019-05-17T20:33:51.488Z,48.13
2019-05-17T20:36:25.711Z,46.08
2019-05-17T20:38:59.509Z,50.58
2019-05-17T20:41:33.135Z,54.55
2019-05-17T20:44:07.365Z,51.88
2019-05-17T20:46:41.371Z,60.60
2019-05-17T20:49:15.433Z,43.28
2019-05-17T20:51:49.840Z,48.10
2019-05-17T20:54:23.863Z,56.35
2019-05-17T20:56:57.409Z,60.10
2019-05-17T20:59:31.789Z,48.70
2019-05-17T21:04:38.777Z,47.40
2019-05-17T21:07:12.409Z,44.73
2019-05-17T21:09:46.659Z,39.90
2019-05-17T21:12:21.691Z,46.98
2019-05-17T21:14:56.501Z,44.70
2019-05-17T21:17:30.716Z,44.63
2019-05-17T21:20:04.573Z,38.40
2019-05-17T21:22:38.738Z,41.67
2019-05-17T21:25:12.706Z,39.08
2019-05-17T21:27:46.768Z,36.65
2019-05-17T21:30:20.673Z,41.53
2019-05-17T21:32:54.792Z,44.10
2019-05-17T21:35:28.787Z,44.03
2019-05-17T21:38:02.688Z,40.58
2019-05-17T21:40:36.942Z,43.75
2019-05-17T21:43:11.386Z,34.73
2019-05-17T21:45:45.549Z,48.45
2019-05-17T21:48:19.874Z,48.28
2019-05-17T21:50:55.473Z,55.08
2019-05-17T21:53:29.441Z,48.68
2019-05-17T21:56:04.881Z,49.53
2019-05-17T21:58:40.388Z,48.80
2019-05-17T22:01:16.849Z,46.50
2019-05-17T22:03:51.952Z,43.10
2019-05-17T22:06:27.188Z,39.70
2019-05-17T22:09:00.772Z,39.13
2019-05-17T22:11:35.841Z,40.58
2019-05-17T22:14:11.210Z,41.42
2019-05-17T22:16:45.059Z,36.30
2019-05-17T22:19:19.416Z,30.48
2019-05-17T22:21:53.431Z,41.50
2019-05-17T22:24:27.358Z,37.75
2019-05-17T22:27:01.600Z,42.45
2019-05-17T22:29:36.339Z,39.95
2019-05-17T22:32:10.462Z,40.08
2019-05-17T22:34:44.599Z,43.58
2019-05-17T22:37:18.208Z,42.70
2019-05-17T22:39:52.193Z,43.30
2019-05-17T22:42:26.038Z,42.17
2019-05-17T22:44:59.962Z,48.25
2019-05-17T22:47:34.049Z,47.50
2019-05-17T22:50:09.212Z,43.28
2019-05-17T22:52:43.857Z,49.93
2019-05-17T22:55:18.209Z,47.23
2019-05-17T22:57:52.462Z,50.58
2019-05-17T23:00:26.588Z,50.78
2019-05-17T23:03:01.074Z,48.15
2019-05-17T23:08:10.295Z,52.85
2019-05-17T23:10:45.455Z,46.23
2019-05-17T23:13:20.317Z,47.83
2019-05-17T23:16:04.582Z,49.83
2019-05-17T23:18:38.749Z,57.08
2019-05-17T23:21:13.460Z,46.53
2019-05-17T23:23:48.707Z,48.05
2019-05-17T23:26:23.081Z,52.55
2019-05-17T23:28:57.520Z,43.45
2019-05-17T23:34:05.253Z,57.53
2019-05-17T23:36:39.631Z,58.90
2019-05-17T23:39:14.190Z,55.63
2019-05-17T23:44:21.208Z,46.77
2019-05-17T23:47:06.794Z,47.30
2019-05-17T23:49:31.473Z,48.02
2019-05-17T23:52:05.006Z,45.28
2019-05-17T23:54:39.239Z,41.28
2019-05-17T23:57:13.119Z,47.93
2019-05-17T23:59:47.179Z,40.15
